sensor_id;sensor_type;location;lat;lon;timestamp;P1;durP1;ratioP1;P2;durP2;ratioP2
45490;SDS011;31237;45.586;13.782;2022-10-17T00:00:47;1.98;;;1.27;;
45490;SDS011;31237;45.586;13.782;2022-10-17T00:03:13;1.05;;;1.05;;
45490;SDS011;31237;45.586;13.782;2022-10-17T00:05:39;0.82;;;0.82;;
45490;SDS011;31237;45.586;13.782;2022-10-17T00:08:06;1.13;;;1.13;;
45490;SDS011;31237;45.586;13.782;2022-10-17T00:10:33;1.23;;;1.17;;
45490;SDS011;31237;45.586;13.782;2022-10-17T00:12:58;1.75;;;1.52;;
45490;SDS011;31237;45.586;13.782;2022-10-17T00:15:24;2.38;;;2.08;;
45490;SDS011;31237;45.586;13.782;2022-10-17T00:17:50;1.50;;;1.40;;
45490;SDS011;31237;45.586;13.782;2022-10-17T00:20:16;1.73;;;1.63;;
45490;SDS011;31237;45.586;13.782;2022-10-17T00:22:42;0.70;;;0.70;;
45490;SDS011;31237;45.586;13.782;2022-10-17T00:25:08;1.33;;;1.20;;
45490;SDS011;31237;45.586;13.782;2022-10-17T00:27:35;1.17;;;1.17;;
45490;SDS011;31237;45.586;13.782;2022-10-17T00:30:05;1.42;;;1.27;;
45490;SDS011;31237;45.586;13.782;2022-10-17T00:32:31;2.15;;;2.05;;
45490;SDS011;31237;45.586;13.782;2022-10-17T00:34:57;1.45;;;1.35;;
45490;SDS011;31237;45.586;13.782;2022-10-17T00:37:23;1.45;;;1.17;;
45490;SDS011;31237;45.586;13.782;2022-10-17T00:39:49;1.00;;;1.00;;
45490;SDS011;31237;45.586;13.782;2022-10-17T00:42:15;1.42;;;1.33;;
45490;SDS011;31237;45.586;13.782;2022-10-17T00:47:44;1.48;;;1.38;;
45490;SDS011;31237;45.586;13.782;2022-10-17T00:50:32;1.13;;;1.13;;
45490;SDS011;31237;45.586;13.782;2022-10-17T00:53:00;1.20;;;1.00;;
45490;SDS011;31237;45.586;13.782;2022-10-17T00:55:30;2.08;;;1.77;;
45490;SDS011;31237;45.586;13.782;2022-10-17T00:57:59;2.53;;;1.13;;
45490;SDS011;31237;45.586;13.782;2022-10-17T01:00:26;1.63;;;1.52;;
45490;SDS011;31237;45.586;13.782;2022-10-17T01:02:52;1.38;;;1.27;;
45490;SDS011;31237;45.586;13.782;2022-10-17T01:05:18;1.42;;;1.33;;
45490;SDS011;31237;45.586;13.782;2022-10-17T01:07:45;2.05;;;1.75;;
45490;SDS011;31237;45.586;13.782;2022-10-17T01:10:13;1.90;;;1.70;;
45490;SDS011;31237;45.586;13.782;2022-10-17T01:21:31;1.42;;;1.33;;
45490;SDS011;31237;45.586;13.782;2022-10-17T01:32:42;0.90;;;0.90;;
45490;SDS011;31237;45.586;13.782;2022-10-17T01:35:18;0.90;;;0.90;;
45490;SDS011;31237;45.586;13.782;2022-10-17T01:37:52;0.88;;;0.88;;
45490;SDS011;31237;45.586;13.782;2022-10-17T01:40:40;5.47;;;1.67;;
45490;SDS011;31237;45.586;13.782;2022-10-17T01:43:21;1.67;;;1.58;;
45490;SDS011;31237;45.586;13.782;2022-10-17T01:46:20;2.03;;;1.90;;
45490;SDS011;31237;45.586;13.782;2022-10-17T01:48:57;2.55;;;2.05;;
45490;SDS011;31237;45.586;13.782;2022-10-17T01:54:01;2.22;;;1.60;;
45490;SDS011;31237;45.586;13.782;2022-10-17T01:56:29;1.95;;;1.60;;
45490;SDS011;31237;45.586;13.782;2022-10-17T01:58:59;1.92;;;1.77;;
45490;SDS011;31237;45.586;13.782;2022-10-17T02:01:49;1.63;;;1.48;;
45490;SDS011;31237;45.586;13.782;2022-10-17T02:04:17;2.13;;;1.67;;
45490;SDS011;31237;45.586;13.782;2022-10-17T02:06:43;1.52;;;1.42;;
45490;SDS011;31237;45.586;13.782;2022-10-17T02:12:18;1.65;;;1.55;;
45490;SDS011;31237;45.586;13.782;2022-10-17T02:22:56;1.67;;;1.38;;
45490;SDS011;31237;45.586;13.782;2022-10-17T02:25:44;1.58;;;1.48;;
45490;SDS011;31237;45.586;13.782;2022-10-17T02:31:27;1.10;;;1.05;;
45490;SDS011;31237;45.586;13.782;2022-10-17T02:34:12;1.67;;;1.58;;
45490;SDS011;31237;45.586;13.782;2022-10-17T02:36:51;1.30;;;1.20;;
45490;SDS011;31237;45.586;13.782;2022-10-17T02:39:21;2.33;;;1.67;;
45490;SDS011;31237;45.586;13.782;2022-10-17T02:41:49;0.60;;;0.60;;
45490;SDS011;31237;45.586;13.782;2022-10-17T02:44:16;1.95;;;1.83;;
45490;SDS011;31237;45.586;13.782;2022-10-17T02:46:43;2.45;;;2.03;;
45490;SDS011;31237;45.586;13.782;2022-10-17T02:49:20;1.33;;;1.23;;
45490;SDS011;31237;45.586;13.782;2022-10-17T02:51:51;1.70;;;1.60;;
45490;SDS011;31237;45.586;13.782;2022-10-17T02:57:06;1.67;;;1.58;;
45490;SDS011;31237;45.586;13.782;2022-10-17T02:59:54;1.73;;;1.63;;
45490;SDS011;31237;45.586;13.782;2022-10-17T03:02:23;1.85;;;1.45;;
45490;SDS011;31237;45.586;13.782;2022-10-17T03:04:49;1.42;;;1.33;;
45490;SDS011;31237;45.586;13.782;2022-10-17T03:07:15;1.05;;;1.05;;
45490;SDS011;31237;45.586;13.782;2022-10-17T03:09:40;1.27;;;1.20;;
45490;SDS011;31237;45.586;13.782;2022-10-17T03:12:06;0.93;;;0.93;;
45490;SDS011;31237;45.586;13.782;2022-10-17T03:14:32;1.95;;;1.77;;
45490;SDS011;31237;45.586;13.782;2022-10-17T03:16:57;1.92;;;1.38;;
45490;SDS011;31237;45.586;13.782;2022-10-17T03:19:23;1.95;;;1.77;;
45490;SDS011;31237;45.586;13.782;2022-10-17T03:21:49;10.20;;;1.60;;
45490;SDS011;31237;45.586;13.782;2022-10-17T03:24:14;1.88;;;1.55;;
45490;SDS011;31237;45.586;13.782;2022-10-17T03:26:40;1.30;;;1.20;;
45490;SDS011;31237;45.586;13.782;2022-10-17T03:29:06;1.55;;;1.45;;
45490;SDS011;31237;45.586;13.782;2022-10-17T03:31:31;1.05;;;1.05;;
45490;SDS011;31237;45.586;13.782;2022-10-17T03:33:57;0.80;;;0.80;;
45490;SDS011;31237;45.586;13.782;2022-10-17T03:36:23;1.67;;;1.50;;
45490;SDS011;31237;45.586;13.782;2022-10-17T03:38:52;1.95;;;1.77;;
45490;SDS011;31237;45.586;13.782;2022-10-17T03:41:18;0.85;;;0.85;;
45490;SDS011;31237;45.586;13.782;2022-10-17T03:43:44;1.50;;;1.40;;
45490;SDS011;31237;45.586;13.782;2022-10-17T03:46:10;2.30;;;1.55;;
45490;SDS011;31237;45.586;13.782;2022-10-17T03:48:35;1.20;;;1.13;;
45490;SDS011;31237;45.586;13.782;2022-10-17T03:51:03;1.35;;;1.27;;
45490;SDS011;31237;45.586;13.782;2022-10-17T03:53:33;1.98;;;1.83;;
45490;SDS011;31237;45.586;13.782;2022-10-17T03:56:11;1.38;;;1.27;;
45490;SDS011;31237;45.586;13.782;2022-10-17T03:58:37;0.93;;;0.93;;
45490;SDS011;31237;45.586;13.782;2022-10-17T04:01:04;2.03;;;1.70;;
45490;SDS011;31237;45.586;13.782;2022-10-17T04:03:34;2.75;;;1.92;;
45490;SDS011;31237;45.586;13.782;2022-10-17T04:06:01;1.25;;;1.23;;
45490;SDS011;31237;45.586;13.782;2022-10-17T04:08:28;1.25;;;1.25;;
45490;SDS011;31237;45.586;13.782;2022-10-17T04:10:57;1.15;;;1.15;;
45490;SDS011;31237;45.586;13.782;2022-10-17T04:13:24;4.85;;;1.80;;
45490;SDS011;31237;45.586;13.782;2022-10-17T04:16:32;0.88;;;0.88;;
45490;SDS011;31237;45.586;13.782;2022-10-17T04:18:41;1.08;;;1.08;;
45490;SDS011;31237;45.586;13.782;2022-10-17T04:21:08;0.82;;;0.82;;
45490;SDS011;31237;45.586;13.782;2022-10-17T04:23:34;1.38;;;1.27;;
45490;SDS011;31237;45.586;13.782;2022-10-17T04:26:00;4.00;;;1.13;;
45490;SDS011;31237;45.586;13.782;2022-10-17T04:28:27;1.48;;;1.35;;
45490;SDS011;31237;45.586;13.782;2022-10-17T04:30:55;1.10;;;1.10;;
45490;SDS011;31237;45.586;13.782;2022-10-17T04:33:22;0.75;;;0.75;;
45490;SDS011;31237;45.586;13.782;2022-10-17T04:35:57;1.50;;;1.40;;
45490;SDS011;31237;45.586;13.782;2022-10-17T04:38:24;0.70;;;0.70;;
45490;SDS011;31237;45.586;13.782;2022-10-17T04:40:51;1.50;;;1.40;;
45490;SDS011;31237;45.586;13.782;2022-10-17T04:43:17;1.83;;;1.63;;
45490;SDS011;31237;45.586;13.782;2022-10-17T04:45:43;0.60;;;0.60;;
45490;SDS011;31237;45.586;13.782;2022-10-17T04:48:08;1.40;;;1.00;;
45490;SDS011;31237;45.586;13.782;2022-10-17T04:50:34;2.50;;;1.38;;
45490;SDS011;31237;45.586;13.782;2022-10-17T04:53:00;1.88;;;1.33;;
45490;SDS011;31237;45.586;13.782;2022-10-17T04:55:25;1.30;;;1.20;;
45490;SDS011;31237;45.586;13.782;2022-10-17T04:57:51;3.35;;;1.75;;
45490;SDS011;31237;45.586;13.782;2022-10-17T05:00:17;1.20;;;1.15;;
45490;SDS011;31237;45.586;13.782;2022-10-17T05:02:43;0.98;;;0.93;;
45490;SDS011;31237;45.586;13.782;2022-10-17T05:05:08;3.85;;;1.35;;
45490;SDS011;31237;45.586;13.782;2022-10-17T05:07:34;1.58;;;1.48;;
45490;SDS011;31237;45.586;13.782;2022-10-17T05:10:03;0.60;;;0.60;;
45490;SDS011;31237;45.586;13.782;2022-10-17T05:12:29;1.38;;;1.25;;
45490;SDS011;31237;45.586;13.782;2022-10-17T05:14:55;1.75;;;1.65;;
45490;SDS011;31237;45.586;13.782;2022-10-17T05:17:20;1.70;;;1.58;;
45490;SDS011;31237;45.586;13.782;2022-10-17T05:19:46;0.93;;;0.93;;
45490;SDS011;31237;45.586;13.782;2022-10-17T05:22:12;1.90;;;1.25;;
45490;SDS011;31237;45.586;13.782;2022-10-17T05:24:37;1.20;;;1.13;;
45490;SDS011;31237;45.586;13.782;2022-10-17T05:27:03;1.33;;;1.23;;
45490;SDS011;31237;45.586;13.782;2022-10-17T05:29:28;1.05;;;1.02;;
45490;SDS011;31237;45.586;13.782;2022-10-17T05:31:54;1.25;;;1.15;;
45490;SDS011;31237;45.586;13.782;2022-10-17T05:34:20;0.90;;;0.90;;
45490;SDS011;31237;45.586;13.782;2022-10-17T05:36:46;0.90;;;0.90;;
45490;SDS011;31237;45.586;13.782;2022-10-17T05:39:11;2.75;;;1.25;;
45490;SDS011;31237;45.586;13.782;2022-10-17T05:41:39;0.60;;;0.60;;
45490;SDS011;31237;45.586;13.782;2022-10-17T05:44:04;1.23;;;1.20;;
45490;SDS011;31237;45.586;13.782;2022-10-17T05:46:30;1.95;;;1.67;;
45490;SDS011;31237;45.586;13.782;2022-10-17T05:48:56;0.60;;;0.60;;
45490;SDS011;31237;45.586;13.782;2022-10-17T05:51:22;1.33;;;1.23;;
45490;SDS011;31237;45.586;13.782;2022-10-17T05:53:47;1.17;;;1.15;;
45490;SDS011;31237;45.586;13.782;2022-10-17T05:56:13;1.58;;;1.48;;
45490;SDS011;31237;45.586;13.782;2022-10-17T05:58:40;1.20;;;1.13;;
45490;SDS011;31237;45.586;13.782;2022-10-17T06:01:08;0.93;;;0.93;;
45490;SDS011;31237;45.586;13.782;2022-10-17T06:03:34;0.80;;;0.80;;
45490;SDS011;31237;45.586;13.782;2022-10-17T06:06:07;0.98;;;0.98;;
45490;SDS011;31237;45.586;13.782;2022-10-17T06:11:00;1.25;;;1.25;;
45490;SDS011;31237;45.586;13.782;2022-10-17T06:13:25;0.90;;;0.90;;
45490;SDS011;31237;45.586;13.782;2022-10-17T06:15:51;1.45;;;1.35;;
45490;SDS011;31237;45.586;13.782;2022-10-17T06:18:17;3.20;;;1.95;;
45490;SDS011;31237;45.586;13.782;2022-10-17T06:20:43;0.85;;;0.85;;
45490;SDS011;31237;45.586;13.782;2022-10-17T06:23:08;1.73;;;1.63;;
45490;SDS011;31237;45.586;13.782;2022-10-17T06:25:34;1.70;;;1.48;;
45490;SDS011;31237;45.586;13.782;2022-10-17T06:28:00;0.82;;;0.82;;
45490;SDS011;31237;45.586;13.782;2022-10-17T06:30:26;1.70;;;1.60;;
45490;SDS011;31237;45.586;13.782;2022-10-17T06:32:52;1.25;;;1.23;;
45490;SDS011;31237;45.586;13.782;2022-10-17T06:35:18;1.92;;;1.77;;
45490;SDS011;31237;45.586;13.782;2022-10-17T06:37:44;0.95;;;0.95;;
45490;SDS011;31237;45.586;13.782;2022-10-17T06:40:10;1.73;;;1.63;;
45490;SDS011;31237;45.586;13.782;2022-10-17T06:42:37;0.80;;;0.80;;
45490;SDS011;31237;45.586;13.782;2022-10-17T06:45:03;0.80;;;0.80;;
45490;SDS011;31237;45.586;13.782;2022-10-17T06:47:29;2.47;;;1.95;;
45490;SDS011;31237;45.586;13.782;2022-10-17T06:49:55;1.38;;;1.27;;
45490;SDS011;31237;45.586;13.782;2022-10-17T06:52:21;1.38;;;1.27;;
45490;SDS011;31237;45.586;13.782;2022-10-17T06:54:47;3.40;;;1.75;;
45490;SDS011;31237;45.586;13.782;2022-10-17T06:57:13;1.77;;;1.67;;
45490;SDS011;31237;45.586;13.782;2022-10-17T06:59:38;1.88;;;1.77;;
45490;SDS011;31237;45.586;13.782;2022-10-17T07:02:04;1.13;;;1.13;;
45490;SDS011;31237;45.586;13.782;2022-10-17T07:04:30;1.50;;;1.42;;
45490;SDS011;31237;45.586;13.782;2022-10-17T07:06:56;2.28;;;2.00;;
45490;SDS011;31237;45.586;13.782;2022-10-17T07:09:22;1.85;;;1.15;;
45490;SDS011;31237;45.586;13.782;2022-10-17T07:11:48;0.93;;;0.85;;
45490;SDS011;31237;45.586;13.782;2022-10-17T07:14:14;2.47;;;2.28;;
45490;SDS011;31237;45.586;13.782;2022-10-17T07:16:39;1.70;;;1.33;;
45490;SDS011;31237;45.586;13.782;2022-10-17T07:19:05;1.27;;;1.17;;
45490;SDS011;31237;45.586;13.782;2022-10-17T07:21:31;2.50;;;2.00;;
45490;SDS011;31237;45.586;13.782;2022-10-17T07:23:57;0.95;;;0.95;;
45490;SDS011;31237;45.586;13.782;2022-10-17T07:26:22;1.00;;;1.00;;
45490;SDS011;31237;45.586;13.782;2022-10-17T07:28:50;2.35;;;1.88;;
45490;SDS011;31237;45.586;13.782;2022-10-17T07:31:18;1.73;;;1.58;;
45490;SDS011;31237;45.586;13.782;2022-10-17T07:33:45;0.73;;;0.73;;
45490;SDS011;31237;45.586;13.782;2022-10-17T07:36:11;1.23;;;1.13;;
45490;SDS011;31237;45.586;13.782;2022-10-17T07:38:39;2.28;;;1.65;;
45490;SDS011;31237;45.586;13.782;2022-10-17T07:41:05;2.85;;;2.33;;
45490;SDS011;31237;45.586;13.782;2022-10-17T07:43:33;2.15;;;2.03;;
45490;SDS011;31237;45.586;13.782;2022-10-17T07:46:00;1.75;;;1.65;;
45490;SDS011;31237;45.586;13.782;2022-10-17T07:48:28;2.47;;;1.95;;
45490;SDS011;31237;45.586;13.782;2022-10-17T07:50:54;1.70;;;1.60;;
45490;SDS011;31237;45.586;13.782;2022-10-17T07:53:19;4.45;;;2.08;;
45490;SDS011;31237;45.586;13.782;2022-10-17T07:55:45;1.25;;;1.17;;
45490;SDS011;31237;45.586;13.782;2022-10-17T07:58:12;2.28;;;2.08;;
45490;SDS011;31237;45.586;13.782;2022-10-17T08:00:38;2.47;;;2.15;;
45490;SDS011;31237;45.586;13.782;2022-10-17T08:03:04;2.85;;;1.90;;
45490;SDS011;31237;45.586;13.782;2022-10-17T08:05:30;1.98;;;1.83;;
45490;SDS011;31237;45.586;13.782;2022-10-17T08:07:57;1.63;;;1.52;;
45490;SDS011;31237;45.586;13.782;2022-10-17T08:10:23;2.22;;;2.08;;
45490;SDS011;31237;45.586;13.782;2022-10-17T08:12:53;2.42;;;1.88;;
45490;SDS011;31237;45.586;13.782;2022-10-17T08:15:21;3.17;;;2.17;;
45490;SDS011;31237;45.586;13.782;2022-10-17T08:17:47;3.00;;;2.30;;
45490;SDS011;31237;45.586;13.782;2022-10-17T08:20:13;3.17;;;2.88;;
45490;SDS011;31237;45.586;13.782;2022-10-17T08:22:39;2.92;;;2.50;;
45490;SDS011;31237;45.586;13.782;2022-10-17T08:25:05;1.40;;;1.30;;
45490;SDS011;31237;45.586;13.782;2022-10-17T08:27:32;0.93;;;0.93;;
45490;SDS011;31237;45.586;13.782;2022-10-17T08:29:58;1.27;;;1.17;;
45490;SDS011;31237;45.586;13.782;2022-10-17T08:32:25;1.73;;;1.63;;
45490;SDS011;31237;45.586;13.782;2022-10-17T08:34:52;1.80;;;1.70;;
45490;SDS011;31237;45.586;13.782;2022-10-17T08:37:19;1.40;;;1.30;;
45490;SDS011;31237;45.586;13.782;2022-10-17T08:39:46;4.93;;;3.20;;
45490;SDS011;31237;45.586;13.782;2022-10-17T08:47:35;3.05;;;2.30;;
45490;SDS011;31237;45.586;13.782;2022-10-17T08:50:10;2.55;;;2.05;;
45490;SDS011;31237;45.586;13.782;2022-10-17T08:52:53;3.03;;;2.50;;
45490;SDS011;31237;45.586;13.782;2022-10-17T08:55:45;1.73;;;1.63;;
45490;SDS011;31237;45.586;13.782;2022-10-17T08:58:12;1.83;;;1.67;;
45490;SDS011;31237;45.586;13.782;2022-10-17T09:00:45;1.75;;;1.65;;
45490;SDS011;31237;45.586;13.782;2022-10-17T09:03:49;4.28;;;2.17;;
45490;SDS011;31237;45.586;13.782;2022-10-17T09:09:20;1.75;;;1.65;;
45490;SDS011;31237;45.586;13.782;2022-10-17T09:19:41;3.30;;;2.47;;
45490;SDS011;31237;45.586;13.782;2022-10-17T09:22:16;4.45;;;3.92;;
45490;SDS011;31237;45.586;13.782;2022-10-17T09:24:52;2.42;;;2.22;;
45490;SDS011;31237;45.586;13.782;2022-10-17T09:27:26;4.93;;;2.42;;
45490;SDS011;31237;45.586;13.782;2022-10-17T09:32:45;4.70;;;3.03;;
45490;SDS011;31237;45.586;13.782;2022-10-17T09:35:14;8.30;;;4.30;;
45490;SDS011;31237;45.586;13.782;2022-10-17T09:37:41;2.90;;;2.50;;
45490;SDS011;31237;45.586;13.782;2022-10-17T09:40:12;4.28;;;2.72;;
45490;SDS011;31237;45.586;13.782;2022-10-17T09:42:46;2.70;;;2.47;;
45490;SDS011;31237;45.586;13.782;2022-10-17T09:45:16;3.65;;;2.78;;
45490;SDS011;31237;45.586;13.782;2022-10-17T09:48:03;5.82;;;4.50;;
45490;SDS011;31237;45.586;13.782;2022-10-17T09:50:51;3.65;;;3.08;;
45490;SDS011;31237;45.586;13.782;2022-10-17T09:53:24;4.70;;;2.92;;
45490;SDS011;31237;45.586;13.782;2022-10-17T09:55:59;6.10;;;3.70;;
45490;SDS011;31237;45.586;13.782;2022-10-17T09:58:40;3.47;;;2.55;;
45490;SDS011;31237;45.586;13.782;2022-10-17T10:06:37;2.53;;;2.20;;
45490;SDS011;31237;45.586;13.782;2022-10-17T10:09:05;6.22;;;2.75;;
45490;SDS011;31237;45.586;13.782;2022-10-17T10:11:52;3.47;;;3.15;;
45490;SDS011;31237;45.586;13.782;2022-10-17T10:14:32;4.22;;;3.55;;
45490;SDS011;31237;45.586;13.782;2022-10-17T10:17:01;7.35;;;3.15;;
45490;SDS011;31237;45.586;13.782;2022-10-17T10:19:35;2.60;;;2.30;;
45490;SDS011;31237;45.586;13.782;2022-10-17T10:22:03;5.00;;;3.63;;
45490;SDS011;31237;45.586;13.782;2022-10-17T10:24:30;3.95;;;3.20;;
45490;SDS011;31237;45.586;13.782;2022-10-17T10:26:57;4.97;;;1.90;;
45490;SDS011;31237;45.586;13.782;2022-10-17T10:37:20;2.65;;;2.03;;
45490;SDS011;31237;45.586;13.782;2022-10-17T10:39:48;4.55;;;3.35;;
45490;SDS011;31237;45.586;13.782;2022-10-17T10:44:46;5.20;;;2.88;;
45490;SDS011;31237;45.586;13.782;2022-10-17T10:47:18;3.10;;;2.70;;
45490;SDS011;31237;45.586;13.782;2022-10-17T10:50:15;2.70;;;2.22;;
45490;SDS011;31237;45.586;13.782;2022-10-17T10:52:49;3.45;;;2.22;;
45490;SDS011;31237;45.586;13.782;2022-10-17T10:55:25;5.25;;;1.50;;
45490;SDS011;31237;45.586;13.782;2022-10-17T10:57:55;2.72;;;2.42;;
45490;SDS011;31237;45.586;13.782;2022-10-17T11:00:26;3.78;;;2.70;;
45490;SDS011;31237;45.586;13.782;2022-10-17T11:05:59;9.35;;;4.03;;
45490;SDS011;31237;45.586;13.782;2022-10-17T11:13:40;4.15;;;3.10;;
45490;SDS011;31237;45.586;13.782;2022-10-17T11:16:24;7.93;;;3.40;;
45490;SDS011;31237;45.586;13.782;2022-10-17T11:19:09;6.43;;;3.85;;
45490;SDS011;31237;45.586;13.782;2022-10-17T11:21:57;6.50;;;3.58;;
45490;SDS011;31237;45.586;13.782;2022-10-17T11:27:29;11.25;;;2.70;;
45490;SDS011;31237;45.586;13.782;2022-10-17T11:29:55;3.22;;;2.25;;
45490;SDS011;31237;45.586;13.782;2022-10-17T11:35:18;4.20;;;3.17;;
45490;SDS011;31237;45.586;13.782;2022-10-17T11:40:54;6.27;;;3.43;;
45490;SDS011;31237;45.586;13.782;2022-10-17T11:43:27;4.53;;;3.00;;
45490;SDS011;31237;45.586;13.782;2022-10-17T11:46:24;3.70;;;2.72;;
45490;SDS011;31237;45.586;13.782;2022-10-17T11:51:45;4.97;;;3.28;;
45490;SDS011;31237;45.586;13.782;2022-10-17T11:54:24;2.83;;;2.30;;
45490;SDS011;31237;45.586;13.782;2022-10-17T12:02:07;5.20;;;3.33;;
45490;SDS011;31237;45.586;13.782;2022-10-17T12:05:00;3.47;;;2.78;;
45490;SDS011;31237;45.586;13.782;2022-10-17T12:07:44;3.78;;;3.03;;
45490;SDS011;31237;45.586;13.782;2022-10-17T12:15:48;4.72;;;3.42;;
45490;SDS011;31237;45.586;13.782;2022-10-17T12:18:14;5.95;;;2.78;;
45490;SDS011;31237;45.586;13.782;2022-10-17T12:20:41;2.72;;;2.53;;
45490;SDS011;31237;45.586;13.782;2022-10-17T12:25:37;3.97;;;3.50;;
45490;SDS011;31237;45.586;13.782;2022-10-17T12:28:23;9.07;;;4.03;;
45490;SDS011;31237;45.586;13.782;2022-10-17T12:33:29;4.78;;;2.15;;
45490;SDS011;31237;45.586;13.782;2022-10-17T12:44:49;3.58;;;3.00;;
45490;SDS011;31237;45.586;13.782;2022-10-17T12:49:50;2.03;;;1.92;;
45490;SDS011;31237;45.586;13.782;2022-10-17T13:02:45;7.78;;;3.15;;
45490;SDS011;31237;45.586;13.782;2022-10-17T13:05:14;6.03;;;2.53;;
45490;SDS011;31237;45.586;13.782;2022-10-17T13:07:48;2.40;;;2.20;;
45490;SDS011;31237;45.586;13.782;2022-10-17T13:10:20;1.58;;;1.40;;
45490;SDS011;31237;45.586;13.782;2022-10-17T13:12:53;4.13;;;2.40;;
45490;SDS011;31237;45.586;13.782;2022-10-17T13:15:29;4.93;;;2.45;;
45490;SDS011;31237;45.586;13.782;2022-10-17T13:17:56;3.53;;;1.90;;
45490;SDS011;31237;45.586;13.782;2022-10-17T13:20:24;3.55;;;3.15;;
45490;SDS011;31237;45.586;13.782;2022-10-17T13:22:52;2.10;;;1.90;;
45490;SDS011;31237;45.586;13.782;2022-10-17T13:25:20;2.78;;;2.53;;
45490;SDS011;31237;45.586;13.782;2022-10-17T13:27:47;4.00;;;2.85;;
45490;SDS011;31237;45.586;13.782;2022-10-17T13:32:56;2.47;;;2.17;;
45490;SDS011;31237;45.586;13.782;2022-10-17T13:35:26;4.07;;;2.40;;
45490;SDS011;31237;45.586;13.782;2022-10-17T13:37:55;2.97;;;2.63;;
45490;SDS011;31237;45.586;13.782;2022-10-17T13:40:22;3.15;;;2.58;;
45490;SDS011;31237;45.586;13.782;2022-10-17T13:42:50;2.28;;;2.08;;
45490;SDS011;31237;45.586;13.782;2022-10-17T13:45:31;4.53;;;2.45;;
45490;SDS011;31237;45.586;13.782;2022-10-17T13:48:02;4.22;;;3.20;;
45490;SDS011;31237;45.586;13.782;2022-10-17T13:53:15;4.85;;;3.40;;
45490;SDS011;31237;45.586;13.782;2022-10-17T13:56:01;5.22;;;3.03;;
45490;SDS011;31237;45.586;13.782;2022-10-17T13:58:48;2.90;;;2.60;;
45490;SDS011;31237;45.586;13.782;2022-10-17T14:01:16;3.15;;;2.42;;
45490;SDS011;31237;45.586;13.782;2022-10-17T14:03:43;2.15;;;1.95;;
45490;SDS011;31237;45.586;13.782;2022-10-17T14:06:12;9.73;;;3.45;;
45490;SDS011;31237;45.586;13.782;2022-10-17T14:08:47;3.67;;;3.38;;
45490;SDS011;31237;45.586;13.782;2022-10-17T14:13:54;3.63;;;2.30;;
45490;SDS011;31237;45.586;13.782;2022-10-17T14:16:21;6.80;;;3.40;;
45490;SDS011;31237;45.586;13.782;2022-10-17T14:18:50;5.78;;;3.15;;
45490;SDS011;31237;45.586;13.782;2022-10-17T14:21:18;3.15;;;2.85;;
45490;SDS011;31237;45.586;13.782;2022-10-17T14:23:49;4.40;;;3.20;;
45490;SDS011;31237;45.586;13.782;2022-10-17T14:26:44;1.98;;;1.70;;
45490;SDS011;31237;45.586;13.782;2022-10-17T14:29:22;4.88;;;3.92;;
45490;SDS011;31237;45.586;13.782;2022-10-17T14:31:49;3.33;;;2.67;;
45490;SDS011;31237;45.586;13.782;2022-10-17T14:34:22;3.08;;;2.05;;
45490;SDS011;31237;45.586;13.782;2022-10-17T14:36:53;2.67;;;2.43;;
45490;SDS011;31237;45.586;13.782;2022-10-17T14:39:21;6.25;;;1.98;;
45490;SDS011;31237;45.586;13.782;2022-10-17T14:41:52;4.53;;;3.20;;
45490;SDS011;31237;45.586;13.782;2022-10-17T14:44:22;3.65;;;2.35;;
45490;SDS011;31237;45.586;13.782;2022-10-17T14:46:59;3.53;;;2.15;;
45490;SDS011;31237;45.586;13.782;2022-10-17T14:49:37;2.75;;;2.17;;
45490;SDS011;31237;45.586;13.782;2022-10-17T14:54:42;1.70;;;1.60;;
45490;SDS011;31237;45.586;13.782;2022-10-17T14:57:14;2.30;;;2.08;;
45490;SDS011;31237;45.586;13.782;2022-10-17T14:59:47;2.05;;;1.90;;
45490;SDS011;31237;45.586;13.782;2022-10-17T15:02:13;3.30;;;1.95;;
45490;SDS011;31237;45.586;13.782;2022-10-17T15:04:39;2.28;;;1.70;;
45490;SDS011;31237;45.586;13.782;2022-10-17T15:07:05;1.60;;;1.50;;
45490;SDS011;31237;45.586;13.782;2022-10-17T15:09:30;1.58;;;1.48;;
45490;SDS011;31237;45.586;13.782;2022-10-17T15:12:00;1.40;;;1.30;;
45490;SDS011;31237;45.586;13.782;2022-10-17T15:14:28;3.58;;;2.42;;
45490;SDS011;31237;45.586;13.782;2022-10-17T15:16:53;0.65;;;0.65;;
45490;SDS011;31237;45.586;13.782;2022-10-17T15:19:19;0.73;;;0.73;;
45490;SDS011;31237;45.586;13.782;2022-10-17T15:21:45;2.35;;;2.15;;
45490;SDS011;31237;45.586;13.782;2022-10-17T15:24:10;1.92;;;1.77;;
45490;SDS011;31237;45.586;13.782;2022-10-17T15:26:36;1.15;;;0.95;;
45490;SDS011;31237;45.586;13.782;2022-10-17T15:29:02;1.52;;;1.42;;
45490;SDS011;31237;45.586;13.782;2022-10-17T15:31:28;0.82;;;0.82;;
45490;SDS011;31237;45.586;13.782;2022-10-17T15:33:57;2.63;;;1.70;;
45490;SDS011;31237;45.586;13.782;2022-10-17T15:36:24;2.33;;;1.50;;
45490;SDS011;31237;45.586;13.782;2022-10-17T15:38:51;1.52;;;1.42;;
45490;SDS011;31237;45.586;13.782;2022-10-17T15:51:34;1.10;;;1.10;;
45490;SDS011;31237;45.586;13.782;2022-10-17T15:53:59;1.60;;;1.50;;
45490;SDS011;31237;45.586;13.782;2022-10-17T15:56:27;1.45;;;1.30;;
45490;SDS011;31237;45.586;13.782;2022-10-17T15:59:02;1.33;;;1.30;;
45490;SDS011;31237;45.586;13.782;2022-10-17T16:01:30;1.75;;;1.52;;
45490;SDS011;31237;45.586;13.782;2022-10-17T16:03:57;1.38;;;1.27;;
45490;SDS011;31237;45.586;13.782;2022-10-17T16:06:23;1.67;;;1.58;;
45490;SDS011;31237;45.586;13.782;2022-10-17T16:08:50;1.52;;;1.42;;
45490;SDS011;31237;45.586;13.782;2022-10-17T16:13:51;1.40;;;1.08;;
45490;SDS011;31237;45.586;13.782;2022-10-17T16:16:18;2.15;;;1.50;;
45490;SDS011;31237;45.586;13.782;2022-10-17T16:18:46;1.38;;;1.27;;
45490;SDS011;31237;45.586;13.782;2022-10-17T16:21:12;4.13;;;1.83;;
45490;SDS011;31237;45.586;13.782;2022-10-17T16:23:39;1.10;;;1.05;;
45490;SDS011;31237;45.586;13.782;2022-10-17T16:26:05;1.75;;;1.65;;
45490;SDS011;31237;45.586;13.782;2022-10-17T16:28:32;1.40;;;1.30;;
45490;SDS011;31237;45.586;13.782;2022-10-17T16:30:58;1.00;;;1.00;;
45490;SDS011;31237;45.586;13.782;2022-10-17T16:33:23;3.15;;;1.45;;
45490;SDS011;31237;45.586;13.782;2022-10-17T16:35:49;0.70;;;0.70;;
45490;SDS011;31237;45.586;13.782;2022-10-17T16:38:16;1.35;;;1.25;;
45490;SDS011;31237;45.586;13.782;2022-10-17T16:40:42;0.93;;;0.93;;
45490;SDS011;31237;45.586;13.782;2022-10-17T16:43:12;2.50;;;1.65;;
45490;SDS011;31237;45.586;13.782;2022-10-17T16:45:38;1.30;;;1.25;;
45490;SDS011;31237;45.586;13.782;2022-10-17T16:48:04;1.45;;;1.35;;
45490;SDS011;31237;45.586;13.782;2022-10-17T16:50:30;1.50;;;1.40;;
45490;SDS011;31237;45.586;13.782;2022-10-17T16:52:59;0.85;;;0.85;;
45490;SDS011;31237;45.586;13.782;2022-10-17T16:55:25;0.88;;;0.88;;
45490;SDS011;31237;45.586;13.782;2022-10-17T16:57:51;1.42;;;1.33;;
45490;SDS011;31237;45.586;13.782;2022-10-17T17:00:17;1.73;;;1.63;;
45490;SDS011;31237;45.586;13.782;2022-10-17T17:02:43;0.80;;;0.80;;
45490;SDS011;31237;45.586;13.782;2022-10-17T17:05:11;1.42;;;1.10;;
45490;SDS011;31237;45.586;13.782;2022-10-17T17:07:37;4.20;;;1.50;;
45490;SDS011;31237;45.586;13.782;2022-10-17T17:10:04;2.03;;;1.63;;
45490;SDS011;31237;45.586;13.782;2022-10-17T17:12:33;0.75;;;0.75;;
45490;SDS011;31237;45.586;13.782;2022-10-17T17:15:00;1.52;;;1.42;;
45490;SDS011;31237;45.586;13.782;2022-10-17T17:17:26;3.40;;;1.83;;
45490;SDS011;31237;45.586;13.782;2022-10-17T17:19:52;1.77;;;1.67;;
45490;SDS011;31237;45.586;13.782;2022-10-17T17:22:19;0.93;;;0.93;;
45490;SDS011;31237;45.586;13.782;2022-10-17T17:24:45;0.82;;;0.82;;